Barroso, Brazil
Current Conditions -  °F | °C
As of 3:00 PM on Thursday 23 Oct 2014 (Local Time) from SBBH Reporting Station
Few Clouds Few Clouds  
Wind Chill: 79°   Ceiling: Unl
Heat Index: 80°   Visibility: 6mi
Dew Point: 57°   Wind: 7mph
Humidity: 47%   Direction: 60°ENE
Pressure: 30.09"   Gusts: NA
Location:  21.19°S, 43.98°W
Report Text: SBBH 231700Z 06006KT 9999 FEW040 26/14 Q1019
Loading
Personal Weather Stations






























Interactive Weather Map
Tropical Storm Tracking
New forecast layout! Learn more

10-Day Weather Forecast

Advertisements
Track Severe Weather on mobile